sensor_id;sensor_type;location;lat;lon;timestamp;temperature;humidity
7366;DHT22;3723;52.220;8.792;2023-12-20T00:01:41;6.20;32.80
7366;DHT22;3723;52.220;8.792;2023-12-20T00:04:08;6.10;24.60
7366;DHT22;3723;52.220;8.792;2023-12-20T00:06:36;6.00;23.00
7366;DHT22;3723;52.220;8.792;2023-12-20T00:09:03;5.90;19.60
7366;DHT22;3723;52.220;8.792;2023-12-20T00:11:29;5.80;22.30
7366;DHT22;3723;52.220;8.792;2023-12-20T00:13:56;5.70;30.40
7366;DHT22;3723;52.220;8.792;2023-12-20T00:16:23;5.70;38.90
7366;DHT22;3723;52.220;8.792;2023-12-20T00:18:50;5.60;41.40
7366;DHT22;3723;52.220;8.792;2023-12-20T00:21:17;5.50;52.40
7366;DHT22;3723;52.220;8.792;2023-12-20T00:23:45;5.40;68.70
7366;DHT22;3723;52.220;8.792;2023-12-20T00:26:12;5.40;94.60
7366;DHT22;3723;52.220;8.792;2023-12-20T00:28:38;5.40;99.90
7366;DHT22;3723;52.220;8.792;2023-12-20T00:31:05;5.40;99.90
7366;DHT22;3723;52.220;8.792;2023-12-20T00:33:33;5.30;99.90
7366;DHT22;3723;52.220;8.792;2023-12-20T00:36:00;5.30;99.90
7366;DHT22;3723;52.220;8.792;2023-12-20T00:38:27;5.20;99.90
7366;DHT22;3723;52.220;8.792;2023-12-20T00:40:56;5.20;99.90
7366;DHT22;3723;52.220;8.792;2023-12-20T00:43:23;5.20;99.90
7366;DHT22;3723;52.220;8.792;2023-12-20T00:45:50;5.10;99.90
7366;DHT22;3723;52.220;8.792;2023-12-20T00:48:17;5.10;99.90
7366;DHT22;3723;52.220;8.792;2023-12-20T00:50:43;5.10;99.90
7366;DHT22;3723;52.220;8.792;2023-12-20T00:53:10;5.10;99.90
7366;DHT22;3723;52.220;8.792;2023-12-20T00:55:37;5.20;99.90
7366;DHT22;3723;52.220;8.792;2023-12-20T00:58:07;5.20;99.90
7366;DHT22;3723;52.220;8.792;2023-12-20T01:00:34;5.20;99.90
7366;DHT22;3723;52.220;8.792;2023-12-20T01:03:00;5.20;99.90
7366;DHT22;3723;52.220;8.792;2023-12-20T01:05:27;5.10;99.90
7366;DHT22;3723;52.220;8.792;2023-12-20T01:07:54;5.10;99.90
7366;DHT22;3723;52.220;8.792;2023-12-20T01:10:22;5.10;99.90
7366;DHT22;3723;52.220;8.792;2023-12-20T01:12:49;5.00;99.90
7366;DHT22;3723;52.220;8.792;2023-12-20T01:15:17;4.90;99.90
7366;DHT22;3723;52.220;8.792;2023-12-20T01:17:44;4.90;99.90
7366;DHT22;3723;52.220;8.792;2023-12-20T01:20:11;4.90;99.90
7366;DHT22;3723;52.220;8.792;2023-12-20T01:22:38;5.10;99.90
7366;DHT22;3723;52.220;8.792;2023-12-20T01:25:05;5.10;1.00
7366;DHT22;3723;52.220;8.792;2023-12-20T01:27:32;5.20;1.00
7366;DHT22;3723;52.220;8.792;2023-12-20T01:29:59;5.30;1.00
7366;DHT22;3723;52.220;8.792;2023-12-20T01:32:27;5.30;1.00
7366;DHT22;3723;52.220;8.792;2023-12-20T01:34:54;5.30;1.00
7366;DHT22;3723;52.220;8.792;2023-12-20T01:37:23;5.40;1.00
7366;DHT22;3723;52.220;8.792;2023-12-20T01:39:51;5.40;1.00
7366;DHT22;3723;52.220;8.792;2023-12-20T01:42:18;5.40;1.00
7366;DHT22;3723;52.220;8.792;2023-12-20T01:44:47;5.40;1.00
7366;DHT22;3723;52.220;8.792;2023-12-20T01:47:29;5.40;1.00
7366;DHT22;3723;52.220;8.792;2023-12-20T01:49:56;5.30;1.00
7366;DHT22;3723;52.220;8.792;2023-12-20T01:52:25;5.30;99.90
7366;DHT22;3723;52.220;8.792;2023-12-20T01:54:52;5.10;99.90
7366;DHT22;3723;52.220;8.792;2023-12-20T01:57:20;5.00;99.90
7366;DHT22;3723;52.220;8.792;2023-12-20T01:59:48;4.90;99.90
7366;DHT22;3723;52.220;8.792;2023-12-20T02:02:15;4.80;99.90
7366;DHT22;3723;52.220;8.792;2023-12-20T02:04:43;4.70;99.90
7366;DHT22;3723;52.220;8.792;2023-12-20T02:07:10;4.80;99.90
7366;DHT22;3723;52.220;8.792;2023-12-20T02:09:39;4.90;99.90
7366;DHT22;3723;52.220;8.792;2023-12-20T02:12:06;4.90;1.00
7366;DHT22;3723;52.220;8.792;2023-12-20T02:14:34;4.80;99.90
7366;DHT22;3723;52.220;8.792;2023-12-20T02:17:01;4.70;99.90
7366;DHT22;3723;52.220;8.792;2023-12-20T02:19:27;4.70;99.90
7366;DHT22;3723;52.220;8.792;2023-12-20T02:22:07;4.60;1.00
7366;DHT22;3723;52.220;8.792;2023-12-20T02:24:35;4.80;1.00
7366;DHT22;3723;52.220;8.792;2023-12-20T02:27:02;4.80;1.00
7366;DHT22;3723;52.220;8.792;2023-12-20T02:29:29;4.80;1.00
7366;DHT22;3723;52.220;8.792;2023-12-20T02:31:57;4.80;1.00
7366;DHT22;3723;52.220;8.792;2023-12-20T02:34:23;4.60;1.00
7366;DHT22;3723;52.220;8.792;2023-12-20T02:36:50;4.60;1.00
7366;DHT22;3723;52.220;8.792;2023-12-20T02:39:19;4.40;1.00
7366;DHT22;3723;52.220;8.792;2023-12-20T02:41:47;4.40;1.00
7366;DHT22;3723;52.220;8.792;2023-12-20T02:44:13;4.40;1.00
7366;DHT22;3723;52.220;8.792;2023-12-20T02:46:42;4.30;1.00
7366;DHT22;3723;52.220;8.792;2023-12-20T02:49:09;4.20;1.00
7366;DHT22;3723;52.220;8.792;2023-12-20T02:51:36;4.10;1.00
7366;DHT22;3723;52.220;8.792;2023-12-20T02:54:04;4.00;1.00
7366;DHT22;3723;52.220;8.792;2023-12-20T02:56:33;3.90;1.00
7366;DHT22;3723;52.220;8.792;2023-12-20T02:59:00;4.00;1.00
7366;DHT22;3723;52.220;8.792;2023-12-20T03:01:28;4.00;1.00
7366;DHT22;3723;52.220;8.792;2023-12-20T03:03:55;4.00;1.00
7366;DHT22;3723;52.220;8.792;2023-12-20T03:06:22;4.00;1.00
7366;DHT22;3723;52.220;8.792;2023-12-20T03:08:49;4.00;1.00
7366;DHT22;3723;52.220;8.792;2023-12-20T03:11:21;4.10;1.00
7366;DHT22;3723;52.220;8.792;2023-12-20T03:13:50;4.20;1.00
7366;DHT22;3723;52.220;8.792;2023-12-20T03:16:17;4.30;1.00
7366;DHT22;3723;52.220;8.792;2023-12-20T03:18:44;4.50;1.00
7366;DHT22;3723;52.220;8.792;2023-12-20T03:21:11;4.50;1.00
7366;DHT22;3723;52.220;8.792;2023-12-20T03:23:37;4.70;1.00
7366;DHT22;3723;52.220;8.792;2023-12-20T03:26:07;4.70;1.00
7366;DHT22;3723;52.220;8.792;2023-12-20T03:28:34;4.70;1.00
7366;DHT22;3723;52.220;8.792;2023-12-20T03:31:03;4.80;1.00
7366;DHT22;3723;52.220;8.792;2023-12-20T03:33:30;4.80;1.00
7366;DHT22;3723;52.220;8.792;2023-12-20T03:35:57;4.90;1.00
7366;DHT22;3723;52.220;8.792;2023-12-20T03:38:24;4.80;1.00
7366;DHT22;3723;52.220;8.792;2023-12-20T03:40:51;4.90;1.00
7366;DHT22;3723;52.220;8.792;2023-12-20T03:43:17;4.90;1.00
7366;DHT22;3723;52.220;8.792;2023-12-20T03:45:44;5.00;1.00
7366;DHT22;3723;52.220;8.792;2023-12-20T03:48:18;5.00;1.00
7366;DHT22;3723;52.220;8.792;2023-12-20T03:50:49;5.00;1.00
7366;DHT22;3723;52.220;8.792;2023-12-20T03:53:16;5.00;1.00
7366;DHT22;3723;52.220;8.792;2023-12-20T03:55:42;5.10;1.00
7366;DHT22;3723;52.220;8.792;2023-12-20T03:58:11;5.10;1.00
7366;DHT22;3723;52.220;8.792;2023-12-20T04:00:40;5.20;1.00
7366;DHT22;3723;52.220;8.792;2023-12-20T04:03:09;5.20;1.00
7366;DHT22;3723;52.220;8.792;2023-12-20T04:05:39;5.20;99.90
7366;DHT22;3723;52.220;8.792;2023-12-20T04:08:06;5.30;99.90
7366;DHT22;3723;52.220;8.792;2023-12-20T04:10:33;5.30;99.90
7366;DHT22;3723;52.220;8.792;2023-12-20T04:13:00;5.30;99.90
7366;DHT22;3723;52.220;8.792;2023-12-20T04:15:27;5.30;99.90
7366;DHT22;3723;52.220;8.792;2023-12-20T04:17:54;5.30;99.90
7366;DHT22;3723;52.220;8.792;2023-12-20T04:20:21;5.30;99.90
7366;DHT22;3723;52.220;8.792;2023-12-20T04:22:49;5.30;99.90
7366;DHT22;3723;52.220;8.792;2023-12-20T04:25:16;5.30;99.90
7366;DHT22;3723;52.220;8.792;2023-12-20T04:27:42;5.40;99.90
7366;DHT22;3723;52.220;8.792;2023-12-20T04:30:10;5.40;99.90
7366;DHT22;3723;52.220;8.792;2023-12-20T04:32:39;5.40;99.90
7366;DHT22;3723;52.220;8.792;2023-12-20T04:35:06;5.40;99.90
7366;DHT22;3723;52.220;8.792;2023-12-20T04:37:37;5.40;99.90
7366;DHT22;3723;52.220;8.792;2023-12-20T04:40:06;5.50;99.50
7366;DHT22;3723;52.220;8.792;2023-12-20T04:42:33;5.50;77.50
7366;DHT22;3723;52.220;8.792;2023-12-20T04:45:00;5.50;34.40
7366;DHT22;3723;52.220;8.792;2023-12-20T04:47:27;5.50;20.40
7366;DHT22;3723;52.220;8.792;2023-12-20T04:49:54;5.60;17.70
7366;DHT22;3723;52.220;8.792;2023-12-20T04:52:23;5.60;1.00
7366;DHT22;3723;52.220;8.792;2023-12-20T04:54:49;5.60;1.00
7366;DHT22;3723;52.220;8.792;2023-12-20T04:57:18;5.60;1.00
7366;DHT22;3723;52.220;8.792;2023-12-20T04:59:45;5.60;1.00
7366;DHT22;3723;52.220;8.792;2023-12-20T05:02:11;5.60;1.00
7366;DHT22;3723;52.220;8.792;2023-12-20T05:04:38;5.60;1.00
7366;DHT22;3723;52.220;8.792;2023-12-20T05:07:05;5.60;1.00
7366;DHT22;3723;52.220;8.792;2023-12-20T05:09:32;5.60;1.00
7366;DHT22;3723;52.220;8.792;2023-12-20T05:11:59;5.60;1.00
7366;DHT22;3723;52.220;8.792;2023-12-20T05:14:28;5.60;1.00
7366;DHT22;3723;52.220;8.792;2023-12-20T05:16:55;5.60;1.00
7366;DHT22;3723;52.220;8.792;2023-12-20T05:19:23;5.60;1.00
7366;DHT22;3723;52.220;8.792;2023-12-20T05:21:50;5.70;1.00
7366;DHT22;3723;52.220;8.792;2023-12-20T05:24:17;5.60;1.00
7366;DHT22;3723;52.220;8.792;2023-12-20T05:26:44;5.70;1.00
7366;DHT22;3723;52.220;8.792;2023-12-20T05:29:11;5.70;1.00
7366;DHT22;3723;52.220;8.792;2023-12-20T05:31:39;5.70;1.00
7366;DHT22;3723;52.220;8.792;2023-12-20T05:34:06;5.70;1.00
7366;DHT22;3723;52.220;8.792;2023-12-20T05:36:33;5.70;1.00
7366;DHT22;3723;52.220;8.792;2023-12-20T05:39:00;5.80;1.00
7366;DHT22;3723;52.220;8.792;2023-12-20T05:41:27;5.80;1.00
7366;DHT22;3723;52.220;8.792;2023-12-20T05:43:54;5.80;1.00
7366;DHT22;3723;52.220;8.792;2023-12-20T05:46:23;5.90;1.00
7366;DHT22;3723;52.220;8.792;2023-12-20T05:48:51;5.90;1.00
7366;DHT22;3723;52.220;8.792;2023-12-20T05:51:18;5.90;1.00
7366;DHT22;3723;52.220;8.792;2023-12-20T05:53:45;5.90;1.00
7366;DHT22;3723;52.220;8.792;2023-12-20T05:56:12;5.90;1.00
7366;DHT22;3723;52.220;8.792;2023-12-20T05:58:40;5.90;1.00
7366;DHT22;3723;52.220;8.792;2023-12-20T06:01:07;5.90;1.00
7366;DHT22;3723;52.220;8.792;2023-12-20T06:03:34;5.90;1.00
7366;DHT22;3723;52.220;8.792;2023-12-20T06:06:06;6.00;1.00
7366;DHT22;3723;52.220;8.792;2023-12-20T06:08:33;6.00;1.00
7366;DHT22;3723;52.220;8.792;2023-12-20T06:11:00;6.00;1.00
7366;DHT22;3723;52.220;8.792;2023-12-20T06:13:27;5.90;1.00
7366;DHT22;3723;52.220;8.792;2023-12-20T06:15:55;5.90;1.00
7366;DHT22;3723;52.220;8.792;2023-12-20T06:18:24;5.90;1.00
7366;DHT22;3723;52.220;8.792;2023-12-20T06:20:51;5.80;1.00
7366;DHT22;3723;52.220;8.792;2023-12-20T06:23:19;5.80;1.00
7366;DHT22;3723;52.220;8.792;2023-12-20T06:25:46;5.80;1.00
7366;DHT22;3723;52.220;8.792;2023-12-20T06:28:14;5.80;1.00
7366;DHT22;3723;52.220;8.792;2023-12-20T06:30:41;5.80;1.00
7366;DHT22;3723;52.220;8.792;2023-12-20T06:33:08;5.80;1.00
7366;DHT22;3723;52.220;8.792;2023-12-20T06:35:35;5.80;1.00
7366;DHT22;3723;52.220;8.792;2023-12-20T06:38:02;5.80;1.00
7366;DHT22;3723;52.220;8.792;2023-12-20T06:40:30;5.80;1.00
7366;DHT22;3723;52.220;8.792;2023-12-20T06:42:57;5.80;1.00
7366;DHT22;3723;52.220;8.792;2023-12-20T06:45:25;5.90;1.00
7366;DHT22;3723;52.220;8.792;2023-12-20T06:47:52;5.90;1.00
7366;DHT22;3723;52.220;8.792;2023-12-20T06:50:20;5.90;1.00
7366;DHT22;3723;52.220;8.792;2023-12-20T06:52:47;6.00;1.00
7366;DHT22;3723;52.220;8.792;2023-12-20T06:55:14;6.00;1.00
7366;DHT22;3723;52.220;8.792;2023-12-20T06:57:44;5.90;1.00
7366;DHT22;3723;52.220;8.792;2023-12-20T07:00:12;5.90;1.00
7366;DHT22;3723;52.220;8.792;2023-12-20T07:02:40;5.90;1.00
7366;DHT22;3723;52.220;8.792;2023-12-20T07:05:07;5.90;1.00
7366;DHT22;3723;52.220;8.792;2023-12-20T07:07:34;5.90;1.00
7366;DHT22;3723;52.220;8.792;2023-12-20T07:10:02;5.90;1.00
7366;DHT22;3723;52.220;8.792;2023-12-20T07:12:28;5.90;1.00
7366;DHT22;3723;52.220;8.792;2023-12-20T07:14:57;5.90;1.00
7366;DHT22;3723;52.220;8.792;2023-12-20T07:17:23;5.90;1.00
7366;DHT22;3723;52.220;8.792;2023-12-20T07:19:50;6.00;1.00
7366;DHT22;3723;52.220;8.792;2023-12-20T07:22:17;6.00;1.00
7366;DHT22;3723;52.220;8.792;2023-12-20T07:24:44;6.00;1.00
7366;DHT22;3723;52.220;8.792;2023-12-20T07:27:11;6.00;1.00
7366;DHT22;3723;52.220;8.792;2023-12-20T07:29:38;6.00;1.00
7366;DHT22;3723;52.220;8.792;2023-12-20T07:32:06;6.00;1.00
7366;DHT22;3723;52.220;8.792;2023-12-20T07:34:34;6.00;1.00
7366;DHT22;3723;52.220;8.792;2023-12-20T07:37:00;6.00;1.00
7366;DHT22;3723;52.220;8.792;2023-12-20T07:39:27;6.00;1.00
7366;DHT22;3723;52.220;8.792;2023-12-20T07:41:54;6.00;1.00
7366;DHT22;3723;52.220;8.792;2023-12-20T07:44:21;6.00;1.00
7366;DHT22;3723;52.220;8.792;2023-12-20T07:46:48;5.90;1.00
7366;DHT22;3723;52.220;8.792;2023-12-20T07:49:16;5.90;1.00
7366;DHT22;3723;52.220;8.792;2023-12-20T07:51:43;5.90;1.00
7366;DHT22;3723;52.220;8.792;2023-12-20T07:54:10;5.90;1.00
7366;DHT22;3723;52.220;8.792;2023-12-20T07:56:37;5.90;1.00
7366;DHT22;3723;52.220;8.792;2023-12-20T07:59:05;5.80;1.00
7366;DHT22;3723;52.220;8.792;2023-12-20T08:01:32;5.80;1.00
7366;DHT22;3723;52.220;8.792;2023-12-20T08:03:59;5.80;1.00
7366;DHT22;3723;52.220;8.792;2023-12-20T08:06:27;5.80;1.00
7366;DHT22;3723;52.220;8.792;2023-12-20T08:08:54;5.70;1.00
7366;DHT22;3723;52.220;8.792;2023-12-20T08:11:21;5.70;1.00
7366;DHT22;3723;52.220;8.792;2023-12-20T08:13:48;5.70;1.00
7366;DHT22;3723;52.220;8.792;2023-12-20T08:16:14;5.70;1.00
7366;DHT22;3723;52.220;8.792;2023-12-20T08:18:43;5.70;1.00
7366;DHT22;3723;52.220;8.792;2023-12-20T08:21:12;5.70;1.00
7366;DHT22;3723;52.220;8.792;2023-12-20T08:23:40;5.80;1.00
7366;DHT22;3723;52.220;8.792;2023-12-20T08:26:08;5.80;1.00
7366;DHT22;3723;52.220;8.792;2023-12-20T08:29:01;5.80;1.00
7366;DHT22;3723;52.220;8.792;2023-12-20T08:31:37;5.80;1.00
7366;DHT22;3723;52.220;8.792;2023-12-20T08:37:29;5.70;1.00
7366;DHT22;3723;52.220;8.792;2023-12-20T08:39:57;5.70;1.00
7366;DHT22;3723;52.220;8.792;2023-12-20T08:45:46;5.70;1.00
7366;DHT22;3723;52.220;8.792;2023-12-20T08:48:18;5.70;1.00
7366;DHT22;3723;52.220;8.792;2023-12-20T08:50:45;5.70;1.00
7366;DHT22;3723;52.220;8.792;2023-12-20T08:53:14;5.70;1.00
7366;DHT22;3723;52.220;8.792;2023-12-20T08:55:43;5.80;1.00
7366;DHT22;3723;52.220;8.792;2023-12-20T08:58:11;5.80;1.00
7366;DHT22;3723;52.220;8.792;2023-12-20T09:00:37;5.80;1.00
7366;DHT22;3723;52.220;8.792;2023-12-20T09:03:11;5.80;1.00
7366;DHT22;3723;52.220;8.792;2023-12-20T09:05:38;5.80;1.00
7366;DHT22;3723;52.220;8.792;2023-12-20T09:08:05;5.90;1.00
7366;DHT22;3723;52.220;8.792;2023-12-20T09:10:33;5.90;1.00
7366;DHT22;3723;52.220;8.792;2023-12-20T09:13:01;5.90;1.00
7366;DHT22;3723;52.220;8.792;2023-12-20T09:15:29;5.90;1.00
7366;DHT22;3723;52.220;8.792;2023-12-20T09:17:56;6.00;1.00
7366;DHT22;3723;52.220;8.792;2023-12-20T09:20:24;6.00;1.00
7366;DHT22;3723;52.220;8.792;2023-12-20T09:22:50;6.00;1.00
7366;DHT22;3723;52.220;8.792;2023-12-20T09:25:17;6.10;1.00
7366;DHT22;3723;52.220;8.792;2023-12-20T09:27:44;6.10;1.00
7366;DHT22;3723;52.220;8.792;2023-12-20T09:30:12;6.20;1.00
7366;DHT22;3723;52.220;8.792;2023-12-20T09:32:40;6.30;1.00
7366;DHT22;3723;52.220;8.792;2023-12-20T09:35:07;6.30;1.00
7366;DHT22;3723;52.220;8.792;2023-12-20T09:37:34;6.30;1.00
7366;DHT22;3723;52.220;8.792;2023-12-20T09:40:01;6.30;1.00
7366;DHT22;3723;52.220;8.792;2023-12-20T09:42:34;6.30;1.00
7366;DHT22;3723;52.220;8.792;2023-12-20T09:45:08;6.40;1.00
7366;DHT22;3723;52.220;8.792;2023-12-20T09:47:37;6.40;1.00
7366;DHT22;3723;52.220;8.792;2023-12-20T09:50:05;6.40;1.00
7366;DHT22;3723;52.220;8.792;2023-12-20T09:52:34;6.30;1.00
7366;DHT22;3723;52.220;8.792;2023-12-20T09:55:03;6.40;1.00
7366;DHT22;3723;52.220;8.792;2023-12-20T09:57:31;6.50;1.00
7366;DHT22;3723;52.220;8.792;2023-12-20T09:59:59;6.50;1.00
7366;DHT22;3723;52.220;8.792;2023-12-20T10:02:27;6.50;1.00
7366;DHT22;3723;52.220;8.792;2023-12-20T10:04:56;6.60;1.00
7366;DHT22;3723;52.220;8.792;2023-12-20T10:07:23;6.50;1.00
7366;DHT22;3723;52.220;8.792;2023-12-20T10:09:54;6.50;1.00
7366;DHT22;3723;52.220;8.792;2023-12-20T10:12:21;6.40;1.00
7366;DHT22;3723;52.220;8.792;2023-12-20T10:14:48;6.30;1.00
7366;DHT22;3723;52.220;8.792;2023-12-20T10:17:16;6.30;1.00
7366;DHT22;3723;52.220;8.792;2023-12-20T10:19:44;6.20;1.00
7366;DHT22;3723;52.220;8.792;2023-12-20T10:22:12;6.20;1.00
7366;DHT22;3723;52.220;8.792;2023-12-20T10:24:40;6.20;1.00
7366;DHT22;3723;52.220;8.792;2023-12-20T10:27:08;6.20;1.00
7366;DHT22;3723;52.220;8.792;2023-12-20T10:29:35;6.20;1.00
7366;DHT22;3723;52.220;8.792;2023-12-20T10:32:22;6.20;1.00
7366;DHT22;3723;52.220;8.792;2023-12-20T10:34:49;6.20;1.00
7366;DHT22;3723;52.220;8.792;2023-12-20T10:37:17;6.10;1.00
7366;DHT22;3723;52.220;8.792;2023-12-20T10:39:49;6.10;1.00
7366;DHT22;3723;52.220;8.792;2023-12-20T10:42:16;6.10;1.00
7366;DHT22;3723;52.220;8.792;2023-12-20T10:44:43;6.10;1.00
7366;DHT22;3723;52.220;8.792;2023-12-20T10:47:11;6.10;1.00
7366;DHT22;3723;52.220;8.792;2023-12-20T10:49:40;6.10;1.00
7366;DHT22;3723;52.220;8.792;2023-12-20T10:52:09;6.10;1.00
7366;DHT22;3723;52.220;8.792;2023-12-20T10:54:39;6.10;1.00
7366;DHT22;3723;52.220;8.792;2023-12-20T10:57:07;6.10;1.00
7366;DHT22;3723;52.220;8.792;2023-12-20T10:59:36;6.10;1.00
7366;DHT22;3723;52.220;8.792;2023-12-20T11:02:04;6.20;1.00
7366;DHT22;3723;52.220;8.792;2023-12-20T11:04:37;6.20;1.00
7366;DHT22;3723;52.220;8.792;2023-12-20T11:07:19;6.30;1.00
7366;DHT22;3723;52.220;8.792;2023-12-20T11:09:57;6.30;1.00
7366;DHT22;3723;52.220;8.792;2023-12-20T11:12:32;6.30;1.00
7366;DHT22;3723;52.220;8.792;2023-12-20T11:15:05;6.40;1.00
7366;DHT22;3723;52.220;8.792;2023-12-20T11:17:33;6.40;1.00
7366;DHT22;3723;52.220;8.792;2023-12-20T11:20:08;6.40;1.00
7366;DHT22;3723;52.220;8.792;2023-12-20T11:22:40;6.40;1.00
7366;DHT22;3723;52.220;8.792;2023-12-20T11:25:19;6.40;1.00
7366;DHT22;3723;52.220;8.792;2023-12-20T11:28:09;6.40;1.00
7366;DHT22;3723;52.220;8.792;2023-12-20T11:30:46;6.40;1.00
7366;DHT22;3723;52.220;8.792;2023-12-20T11:33:13;6.40;1.00
7366;DHT22;3723;52.220;8.792;2023-12-20T11:35:41;6.50;1.00
7366;DHT22;3723;52.220;8.792;2023-12-20T11:38:08;6.50;1.00
7366;DHT22;3723;52.220;8.792;2023-12-20T11:40:37;6.60;1.00
7366;DHT22;3723;52.220;8.792;2023-12-20T11:43:04;6.60;1.00
7366;DHT22;3723;52.220;8.792;2023-12-20T11:45:49;6.60;1.00
7366;DHT22;3723;52.220;8.792;2023-12-20T11:48:17;6.60;1.00
7366;DHT22;3723;52.220;8.792;2023-12-20T11:50:46;6.70;1.00
7366;DHT22;3723;52.220;8.792;2023-12-20T11:56:21;6.60;1.00
7366;DHT22;3723;52.220;8.792;2023-12-20T11:58:49;6.60;1.00
7366;DHT22;3723;52.220;8.792;2023-12-20T12:01:24;6.50;1.00
7366;DHT22;3723;52.220;8.792;2023-12-20T12:04:03;6.50;1.00
7366;DHT22;3723;52.220;8.792;2023-12-20T12:06:29;6.50;1.00
7366;DHT22;3723;52.220;8.792;2023-12-20T12:08:56;6.40;1.00
7366;DHT22;3723;52.220;8.792;2023-12-20T12:11:24;6.40;1.00
7366;DHT22;3723;52.220;8.792;2023-12-20T12:13:58;6.40;1.00
7366;DHT22;3723;52.220;8.792;2023-12-20T12:16:25;6.40;1.00
7366;DHT22;3723;52.220;8.792;2023-12-20T12:18:56;6.30;1.00
7366;DHT22;3723;52.220;8.792;2023-12-20T12:21:25;6.30;1.00
7366;DHT22;3723;52.220;8.792;2023-12-20T12:23:53;6.30;1.00
7366;DHT22;3723;52.220;8.792;2023-12-20T12:26:20;6.20;1.00
7366;DHT22;3723;52.220;8.792;2023-12-20T12:28:48;6.20;1.00
7366;DHT22;3723;52.220;8.792;2023-12-20T12:31:17;6.30;1.00
7366;DHT22;3723;52.220;8.792;2023-12-20T12:33:44;6.20;1.00
7366;DHT22;3723;52.220;8.792;2023-12-20T12:36:11;6.20;1.00
7366;DHT22;3723;52.220;8.792;2023-12-20T12:38:41;6.10;1.00
7366;DHT22;3723;52.220;8.792;2023-12-20T12:41:08;6.10;1.00
7366;DHT22;3723;52.220;8.792;2023-12-20T12:43:36;6.20;1.00
7366;DHT22;3723;52.220;8.792;2023-12-20T12:46:04;6.10;1.00
7366;DHT22;3723;52.220;8.792;2023-12-20T12:48:31;6.10;1.00
7366;DHT22;3723;52.220;8.792;2023-12-20T12:50:59;6.10;1.00
7366;DHT22;3723;52.220;8.792;2023-12-20T12:53:26;6.10;1.00
7366;DHT22;3723;52.220;8.792;2023-12-20T12:55:53;6.00;1.00
7366;DHT22;3723;52.220;8.792;2023-12-20T12:58:21;6.00;1.00
7366;DHT22;3723;52.220;8.792;2023-12-20T13:01:02;6.00;1.00
7366;DHT22;3723;52.220;8.792;2023-12-20T13:03:30;5.90;1.00
7366;DHT22;3723;52.220;8.792;2023-12-20T13:05:57;5.90;1.00
7366;DHT22;3723;52.220;8.792;2023-12-20T13:08:24;5.90;1.00
7366;DHT22;3723;52.220;8.792;2023-12-20T13:10:51;5.90;1.00
7366;DHT22;3723;52.220;8.792;2023-12-20T13:13:18;5.80;1.00
7366;DHT22;3723;52.220;8.792;2023-12-20T13:15:44;5.80;1.00
7366;DHT22;3723;52.220;8.792;2023-12-20T13:18:16;5.80;1.00
7366;DHT22;3723;52.220;8.792;2023-12-20T13:21:01;5.80;1.00
7366;DHT22;3723;52.220;8.792;2023-12-20T13:23:28;5.70;1.00
7366;DHT22;3723;52.220;8.792;2023-12-20T13:25:54;5.80;1.00
7366;DHT22;3723;52.220;8.792;2023-12-20T13:28:21;5.70;1.00
7366;DHT22;3723;52.220;8.792;2023-12-20T13:30:48;5.70;1.00
7366;DHT22;3723;52.220;8.792;2023-12-20T13:33:15;5.60;1.00
7366;DHT22;3723;52.220;8.792;2023-12-20T13:35:41;5.70;1.00
7366;DHT22;3723;52.220;8.792;2023-12-20T13:38:12;5.80;1.00
7366;DHT22;3723;52.220;8.792;2023-12-20T13:40:44;5.80;1.00
7366;DHT22;3723;52.220;8.792;2023-12-20T13:43:30;5.80;1.00
7366;DHT22;3723;52.220;8.792;2023-12-20T13:45:58;5.90;1.00
7366;DHT22;3723;52.220;8.792;2023-12-20T13:48:25;5.80;1.00
7366;DHT22;3723;52.220;8.792;2023-12-20T13:50:51;5.90;1.00
7366;DHT22;3723;52.220;8.792;2023-12-20T13:53:21;5.80;1.00
7366;DHT22;3723;52.220;8.792;2023-12-20T13:55:48;5.80;1.00
7366;DHT22;3723;52.220;8.792;2023-12-20T13:58:15;5.70;1.00
7366;DHT22;3723;52.220;8.792;2023-12-20T14:00:57;5.70;1.00
7366;DHT22;3723;52.220;8.792;2023-12-20T14:03:24;5.70;1.00
7366;DHT22;3723;52.220;8.792;2023-12-20T14:05:51;5.70;1.00
7366;DHT22;3723;52.220;8.792;2023-12-20T14:08:41;5.70;1.00
7366;DHT22;3723;52.220;8.792;2023-12-20T14:11:08;5.70;1.00
7366;DHT22;3723;52.220;8.792;2023-12-20T14:13:35;5.70;1.00
7366;DHT22;3723;52.220;8.792;2023-12-20T14:16:02;5.80;1.00
7366;DHT22;3723;52.220;8.792;2023-12-20T14:18:32;5.80;1.00
7366;DHT22;3723;52.220;8.792;2023-12-20T14:21:00;5.80;1.00
7366;DHT22;3723;52.220;8.792;2023-12-20T14:23:27;5.80;1.00
7366;DHT22;3723;52.220;8.792;2023-12-20T14:25:55;5.80;1.00
7366;DHT22;3723;52.220;8.792;2023-12-20T14:28:24;5.80;1.00
7366;DHT22;3723;52.220;8.792;2023-12-20T14:30:51;5.80;1.00
7366;DHT22;3723;52.220;8.792;2023-12-20T14:33:18;5.70;1.00
7366;DHT22;3723;52.220;8.792;2023-12-20T14:35:47;5.70;1.00
7366;DHT22;3723;52.220;8.792;2023-12-20T14:38:14;5.70;1.00
7366;DHT22;3723;52.220;8.792;2023-12-20T14:40:41;5.80;1.00
7366;DHT22;3723;52.220;8.792;2023-12-20T14:43:10;5.70;1.00
7366;DHT22;3723;52.220;8.792;2023-12-20T14:45:37;5.80;1.00
7366;DHT22;3723;52.220;8.792;2023-12-20T14:48:05;5.80;1.00
7366;DHT22;3723;52.220;8.792;2023-12-20T14:50:32;5.80;1.00
7366;DHT22;3723;52.220;8.792;2023-12-20T14:52:59;5.80;1.00
7366;DHT22;3723;52.220;8.792;2023-12-20T14:55:25;5.80;1.00
7366;DHT22;3723;52.220;8.792;2023-12-20T14:57:57;5.80;1.00
7366;DHT22;3723;52.220;8.792;2023-12-20T15:00:25;5.90;1.00
7366;DHT22;3723;52.220;8.792;2023-12-20T15:02:52;5.90;1.00
7366;DHT22;3723;52.220;8.792;2023-12-20T15:05:19;5.90;1.00
7366;DHT22;3723;52.220;8.792;2023-12-20T15:07:46;5.90;1.00
7366;DHT22;3723;52.220;8.792;2023-12-20T15:10:13;5.90;1.00
7366;DHT22;3723;52.220;8.792;2023-12-20T15:12:42;5.90;1.00
7366;DHT22;3723;52.220;8.792;2023-12-20T15:15:10;5.90;1.00
7366;DHT22;3723;52.220;8.792;2023-12-20T15:17:38;5.90;1.00
7366;DHT22;3723;52.220;8.792;2023-12-20T15:20:06;5.90;1.00
7366;DHT22;3723;52.220;8.792;2023-12-20T15:22:36;5.90;1.00
7366;DHT22;3723;52.220;8.792;2023-12-20T15:25:04;5.90;1.00
7366;DHT22;3723;52.220;8.792;2023-12-20T15:27:32;5.90;1.00
7366;DHT22;3723;52.220;8.792;2023-12-20T15:30:01;5.80;1.00
7366;DHT22;3723;52.220;8.792;2023-12-20T15:32:27;5.80;1.00
7366;DHT22;3723;52.220;8.792;2023-12-20T15:35:18;5.80;1.00
7366;DHT22;3723;52.220;8.792;2023-12-20T15:37:45;5.80;1.00
7366;DHT22;3723;52.220;8.792;2023-12-20T15:40:11;5.80;1.00
7366;DHT22;3723;52.220;8.792;2023-12-20T15:42:47;5.70;1.00
7366;DHT22;3723;52.220;8.792;2023-12-20T15:45:15;5.60;1.00
7366;DHT22;3723;52.220;8.792;2023-12-20T15:47:42;5.60;1.00
7366;DHT22;3723;52.220;8.792;2023-12-20T15:50:11;5.50;1.00
7366;DHT22;3723;52.220;8.792;2023-12-20T15:52:40;5.50;1.00
7366;DHT22;3723;52.220;8.792;2023-12-20T15:55:08;5.40;1.00
7366;DHT22;3723;52.220;8.792;2023-12-20T15:57:35;5.30;1.00
7366;DHT22;3723;52.220;8.792;2023-12-20T16:00:04;5.30;1.00
7366;DHT22;3723;52.220;8.792;2023-12-20T16:02:31;5.30;1.00
7366;DHT22;3723;52.220;8.792;2023-12-20T16:04:58;5.30;1.00
7366;DHT22;3723;52.220;8.792;2023-12-20T16:07:25;5.20;1.00
7366;DHT22;3723;52.220;8.792;2023-12-20T16:09:53;5.20;1.00
7366;DHT22;3723;52.220;8.792;2023-12-20T16:12:20;5.20;1.00
7366;DHT22;3723;52.220;8.792;2023-12-20T16:14:47;5.20;1.00
7366;DHT22;3723;52.220;8.792;2023-12-20T16:17:14;5.20;1.00
7366;DHT22;3723;52.220;8.792;2023-12-20T16:19:42;5.20;1.00
7366;DHT22;3723;52.220;8.792;2023-12-20T16:22:09;5.20;1.00
7366;DHT22;3723;52.220;8.792;2023-12-20T16:24:44;5.20;1.00
7366;DHT22;3723;52.220;8.792;2023-12-20T16:27:12;5.20;1.00
7366;DHT22;3723;52.220;8.792;2023-12-20T16:29:39;5.20;1.00
7366;DHT22;3723;52.220;8.792;2023-12-20T16:32:06;5.20;1.00
7366;DHT22;3723;52.220;8.792;2023-12-20T16:35:08;5.20;1.00
7366;DHT22;3723;52.220;8.792;2023-12-20T16:37:35;5.20;1.00
7366;DHT22;3723;52.220;8.792;2023-12-20T16:40:04;5.30;1.00
7366;DHT22;3723;52.220;8.792;2023-12-20T16:42:32;5.30;1.00
7366;DHT22;3723;52.220;8.792;2023-12-20T16:44:59;5.30;1.00
7366;DHT22;3723;52.220;8.792;2023-12-20T16:47:26;5.30;1.00
7366;DHT22;3723;52.220;8.792;2023-12-20T16:49:53;5.30;1.00